Domov               UVHVVR             MKGP            O straneh              
ZDRAVSTVENO VARSTVO RASTLIN
  MREŽA AGROMET. POSTAJ
 ► PROGNOSTIČNA OBVESTILA
AGROMETEOROLOŠKI PODATKI -
ARSO
OBVLADOVANJE TVEGANJ ZARADI
NEUGODNIH VREMENSKIH RAZMER
  ► NARAVNE NESREČE
  ► SUŠA/MOČA
  ► NAMAKANJE
  ► ŽLED (gozdarstvo)
KARTOGRAFSKI PRIKAZI
SPLETNE POVEZAVE
PROJEKTI IN PUBLIKACIJE

AGROMETEOROLOŠKA MREŽA: VREMENSKE POSTAJE IN FENOLOŠKA OPAZOVANJA

Pregled podatkov za lokacijo Rodine pri Trebnjem APS, meteorološka postaja 49195

Pregled senzorjev na lokaciji

ID Ime Zadnja
vrednost
Datum
zadnje
spremembe
Tip
senzorja
3769 Sončno sevanje (W/m2) 0,55 W/m2 19.9.2018 20:00 Pyranometer SP-Lite
3770 Omočenost lista (U) 0 U 19.9.2018 20:00 A730WET
3727 Padavine (mm) 0 mm 19.9.2018 20:00 Rain-O-Matic
3721 Relativna vlaga 2 m (% RH) 95,37 % RH 19.9.2018 20:00 50YA
3720 Temperatura 2 m (°C) 19,2 °C 19.9.2018 20:00 50YA
3726 Smer vetra (°) 344,25 ° 19.9.2018 20:00 566.2S-130
3725 Hitrost vetra (km/h) 0,05 km/h 19.9.2018 20:00 566.2S-176 (200km/h)

Pregled podatkov zadnjih 24 ur

Zap.
št.
Datum in čas Rodine pri Trebnjem APS
Sončno
sevanje
Omočenost
lista
Padavine Relativna
vlaga
2
m
Temperatura
2
m
Smer
vetra
Hitrost
vetra
1 19.9.2018 20:30
2 19.9.2018 20:00
3 19.9.2018 19:30
4 19.9.2018 19:00 0,5 0 0 95,4 19,2 344,2 0
5 19.9.2018 18:30 1,3 0 0 90,6 20,1 321,1 0
6 19.9.2018 18:00 7,3 0 0 87 21,2 117,5 0
7 19.9.2018 17:30 28,6 0 0 84,1 22,4 9,3 0
8 19.9.2018 17:00 72,7 0 0 74 23,5 246,1 0,2
9 19.9.2018 16:30 38,6 0 0 67,2 24,4 77,5 0
10 19.9.2018 16:00 265,8 0 0 54 26,6 118,8 2,4
11 19.9.2018 15:30 373,3 0 0 56,1 26,8 187,9 4,3
12 19.9.2018 15:00 319,9 0 0 63,4 26,1 143,3 3,6
13 19.9.2018 14:30 444,4 0 0 61,7 26,3 132,9 6
14 19.9.2018 14:00 597,6 0 0 59,6 26,7 81,7 2,5
15 19.9.2018 13:30 648,6 0 0 59,9 26,9 68,3 3,5
16 19.9.2018 13:00 649,1 1 0 58,3 27 241,8 1
17 19.9.2018 12:30 654,9 1 0 59,2 26,5 171,2 2,4
18 19.9.2018 12:00 656,8 1 0 63,1 26,1 205,3 1,8
19 19.9.2018 11:30 631,7 1 0 65,1 24,9 248,7 0,5
20 19.9.2018 11:00 593,3 1 0 69,6 24 100,6 0,6
21 19.9.2018 10:30 566,8 1 0 72,1 23,2 196,2 2,6
22 19.9.2018 10:00 519,4 0 0 73,8 22,7 128 1,8
23 19.9.2018 09:30 458,8 1 0 81,5 20,9 180 1,8
24 19.9.2018 09:00 391,6 1 0 87,3 19 114,3 0,2
25 19.9.2018 08:30 318,6 0 0 97,6 16,9 181,2 0,2
26 19.9.2018 08:00 192,6 0 0 100 15,1 153,9 0
27 19.9.2018 07:30 101,4 0 0 100 14,2 230,5 0
28 19.9.2018 07:00 57,3 0 0 100 13,7 100,5 0
29 19.9.2018 06:30 22,4 0 0 100 13,3 168,1 0
30 19.9.2018 06:00 4,3 0 0 100 13 292,1 0
31 19.9.2018 05:30 0,7 0 0 100 12,7 326,3 0
32 19.9.2018 05:00 0,5 0 0 100 12,5 84,9 0
33 19.9.2018 04:30 0,5 0 0 100 12,6 103,9 0
34 19.9.2018 04:00 0,5 0 0 100 12,8 198,6 0
35 19.9.2018 03:30 0,5 0 0 100 12,9 96,3 0
36 19.9.2018 03:00 0,5 0 0 100 13 237,6 0
37 19.9.2018 02:30 0,6 0 0 100 13,3 1,1 0
38 19.9.2018 02:00 0,6 0 0 100 13,4 228,4 0
39 19.9.2018 01:30 0,6 0 0 100 13,7 329,3 0
40 19.9.2018 01:00 0,5 0 0 100 13,8 191,7 0
41 19.9.2018 00:30 0,5 0 0 100 14,1 299,6 0
42 19.9.2018 00:00 0,5 0 0 100 14,3 158,6 0
43 18.9.2018 23:30 0,6 0 0 100 14,7 163,5 0
44 18.9.2018 23:00 0,5 0 0 100 14,8 356,2 0
45 18.9.2018 22:30 0,5 0 0 100 15,2 204,8 0
46 18.9.2018 22:00 0,5 0 0 100 15,6 54,9 0
47 18.9.2018 21:30 0,6 0 0 99,9 15,7 312 0
48 18.9.2018 21:00 0,5 0 0 99,5 15,9 109,9 0
© 2011 Ministrstvo za kmetijstvo, gozdarstvo in prehrano. Vse pravice pridržane.